createdAt,value
2022-11-03T00:01:54.350Z,99075.72
2022-11-03T00:06:59.437Z,99086.13
2022-11-03T00:12:03.489Z,99077.50
2022-11-03T00:17:07.341Z,99078.28
2022-11-03T00:22:12.275Z,99086.09
2022-11-03T00:27:15.877Z,99075.94
2022-11-03T00:32:19.448Z,99077.84
2022-11-03T00:37:24.465Z,99084.84
2022-11-03T00:42:27.834Z,99079.94
2022-11-03T00:47:31.391Z,99075.91
2022-11-03T00:52:36.429Z,99079.53
2022-11-03T00:57:39.775Z,99093.09
2022-11-03T01:02:43.081Z,99089.97
2022-11-03T01:07:48.100Z,99101.03
2022-11-03T01:12:51.431Z,99096.50
2022-11-03T01:17:55.052Z,99099.19
2022-11-03T01:22:59.719Z,99098.38
2022-11-03T01:33:12.312Z,99115.03
2022-11-03T01:38:17.458Z,99113.69
2022-11-03T01:43:22.683Z,99116.94
2022-11-03T01:48:26.653Z,99122.84
2022-11-03T01:53:32.103Z,99130.72
2022-11-03T01:58:39.567Z,99131.78
2022-11-03T02:03:50.637Z,99123.06
2022-11-03T02:09:02.058Z,99118.38
2022-11-03T02:14:05.525Z,99107.38
2022-11-03T02:19:15.031Z,99115.16
2022-11-03T02:24:28.478Z,99108.41
2022-11-03T02:29:33.644Z,99116.66
2022-11-03T02:34:44.011Z,99111.72
2022-11-03T02:39:50.408Z,99111.31
2022-11-03T02:44:59.095Z,99117.75
2022-11-03T02:50:02.594Z,99113.97
2022-11-03T02:55:13.871Z,99105.50
2022-11-03T03:00:19.802Z,99111.22
2022-11-03T03:05:28.209Z,99117.44
2022-11-03T03:10:36.484Z,99117.00
2022-11-03T03:15:46.555Z,99119.91
2022-11-03T03:20:56.941Z,99117.34
2022-11-03T03:26:04.902Z,99123.91
2022-11-03T03:31:13.544Z,99118.88
2022-11-03T03:36:19.680Z,99105.22
2022-11-03T03:41:25.540Z,99096.59
2022-11-03T03:46:37.030Z,99105.41
2022-11-03T03:51:40.880Z,99110.53
2022-11-03T03:56:49.394Z,99111.47
2022-11-03T04:01:54.480Z,99117.03
2022-11-03T04:07:12.064Z,99119.50
2022-11-03T04:12:32.969Z,99124.72
2022-11-03T04:17:55.738Z,99105.41
2022-11-03T04:22:59.028Z,99125.16
2022-11-03T04:28:03.659Z,99126.75
2022-11-03T04:33:13.616Z,99128.03
2022-11-03T04:38:25.283Z,99120.06
2022-11-03T04:43:34.567Z,99127.94
2022-11-03T04:48:39.361Z,99132.88
2022-11-03T04:53:45.897Z,99130.03
2022-11-03T04:58:49.773Z,99140.84
2022-11-03T05:03:56.115Z,99135.91
2022-11-03T05:09:03.235Z,99126.84
2022-11-03T05:14:16.719Z,99135.41
2022-11-03T05:19:24.168Z,99133.22
2022-11-03T05:24:28.212Z,99126.47
2022-11-03T05:29:36.547Z,99131.97
2022-11-03T05:34:44.341Z,99142.84
2022-11-03T05:39:50.084Z,99142.34
2022-11-03T05:44:53.687Z,99146.97
2022-11-03T05:50:13.183Z,99146.00
2022-11-03T05:55:28.484Z,99145.38
2022-11-03T06:00:34.719Z,99154.00
2022-11-03T06:05:39.517Z,99157.00
2022-11-03T06:10:47.200Z,99164.06
2022-11-03T06:15:59.256Z,99156.69
2022-11-03T06:21:09.482Z,99144.50
2022-11-03T06:26:22.092Z,99162.78
2022-11-03T06:31:28.927Z,99159.56
2022-11-03T06:36:38.776Z,99167.44
2022-11-03T06:41:42.977Z,99173.78
2022-11-03T06:46:46.644Z,99170.03
2022-11-03T06:51:54.504Z,99172.78
2022-11-03T06:56:57.867Z,99183.59
2022-11-03T07:02:02.883Z,99169.41
2022-11-03T07:07:07.952Z,99184.31
2022-11-03T07:12:17.882Z,99183.63
2022-11-03T07:17:24.479Z,99178.47
2022-11-03T07:22:29.563Z,99179.38
2022-11-03T07:27:34.680Z,99182.22
2022-11-03T07:32:38.116Z,99183.63
2022-11-03T07:37:43.389Z,99183.50
2022-11-03T07:42:47.005Z,99155.63
2022-11-03T07:47:50.816Z,99182.63
2022-11-03T07:52:55.701Z,99191.63
2022-11-03T07:58:00.692Z,99191.53
2022-11-03T08:03:04.679Z,99183.94
2022-11-03T08:08:10.190Z,99181.94
2022-11-03T08:13:14.032Z,99174.25
2022-11-03T08:18:17.726Z,99171.47
2022-11-03T08:23:26.489Z,99179.97
2022-11-03T08:28:31.122Z,99177.75
2022-11-03T08:33:35.930Z,99180.28
2022-11-03T08:38:40.968Z,99173.53
2022-11-03T08:43:44.284Z,99180.06
2022-11-03T08:48:48.122Z,99170.25
2022-11-03T08:53:54.208Z,99157.69
2022-11-03T08:58:57.997Z,99170.84
2022-11-03T09:04:01.908Z,99160.81
2022-11-03T09:14:31.626Z,99155.22
2022-11-03T09:19:35.249Z,99160.03
2022-11-03T09:24:40.103Z,99153.63
2022-11-03T09:30:11.206Z,99157.59
2022-11-03T09:35:09.063Z,99160.13
2022-11-03T09:40:17.064Z,99177.63
2022-11-03T09:45:20.725Z,99168.19
2022-11-03T09:50:24.226Z,99159.16
2022-11-03T09:55:29.339Z,99160.16
2022-11-03T10:00:32.958Z,99159.97
2022-11-03T10:05:36.436Z,99166.59
2022-11-03T10:10:42.122Z,99172.41
2022-11-03T10:15:45.636Z,99173.91
2022-11-03T10:20:49.321Z,99169.84
2022-11-03T10:25:54.289Z,99164.94
2022-11-03T10:31:14.972Z,99142.59
2022-11-03T10:36:26.744Z,99160.25
2022-11-03T10:41:33.404Z,99158.41
2022-11-03T10:46:50.107Z,99158.25
2022-11-03T10:51:56.575Z,99151.66
2022-11-03T10:57:03.134Z,99156.72
2022-11-03T11:02:16.336Z,99155.66
2022-11-03T11:07:25.180Z,99153.25
2022-11-03T11:12:30.191Z,99163.91
2022-11-03T11:17:49.998Z,99160.69
2022-11-03T11:22:54.261Z,99153.75
2022-11-03T11:28:00.027Z,99145.16
2022-11-03T11:33:15.218Z,99147.09
2022-11-03T11:38:55.784Z,99145.34
2022-11-03T11:45:04.168Z,99142.44
2022-11-03T11:50:32.304Z,99145.84
2022-11-03T11:55:44.240Z,99153.34
2022-11-03T12:01:01.601Z,99153.53
2022-11-03T12:06:05.448Z,99163.91
2022-11-03T12:11:11.868Z,99164.81
2022-11-03T12:16:32.703Z,99160.63
2022-11-03T12:21:49.794Z,99154.63
2022-11-03T12:26:53.568Z,99155.38
2022-11-03T12:31:58.701Z,99151.06
2022-11-03T12:37:02.385Z,99154.34
2022-11-03T12:42:06.687Z,99162.09
2022-11-03T12:47:11.930Z,99156.91
2022-11-03T12:52:15.395Z,99158.44
2022-11-03T12:57:19.092Z,99158.00
2022-11-03T13:02:24.056Z,99164.06
2022-11-03T13:07:31.959Z,99169.84
2022-11-03T13:12:41.570Z,99170.31
2022-11-03T13:23:10.687Z,99163.34
2022-11-03T13:28:14.411Z,99168.59
2022-11-03T13:33:19.386Z,99168.56
2022-11-03T13:38:22.651Z,99168.94
2022-11-03T13:43:26.226Z,99171.50
2022-11-03T14:04:42.827Z,99171.13
2022-11-03T14:09:47.771Z,99175.78
2022-11-03T14:14:51.229Z,99178.03
2022-11-03T14:20:02.613Z,99183.91
2022-11-03T14:25:09.177Z,99176.91
2022-11-03T14:30:14.085Z,99184.09
2022-11-03T14:35:18.962Z,99192.28
2022-11-03T14:40:39.741Z,99183.31
2022-11-03T14:45:43.646Z,99189.06
2022-11-03T14:50:48.508Z,99189.00
2022-11-03T14:55:51.700Z,99185.59
2022-11-03T15:00:55.150Z,99183.44
2022-11-03T15:05:59.858Z,99190.09
2022-11-03T15:11:03.289Z,99195.59
2022-11-03T15:16:07.137Z,99190.66
2022-11-03T15:21:12.136Z,99191.97
2022-11-03T15:26:15.369Z,99194.53
2022-11-03T15:31:18.717Z,99201.50
2022-11-03T15:36:23.948Z,99192.75
2022-11-03T15:41:27.256Z,99202.94
2022-11-03T15:46:30.532Z,99199.00
2022-11-03T15:51:35.015Z,99189.97
2022-11-03T15:56:38.348Z,99189.97
2022-11-03T16:01:41.950Z,99185.47
2022-11-03T16:07:06.696Z,99184.56
2022-11-03T16:12:10.076Z,99186.31
2022-11-03T16:17:13.441Z,99186.38
2022-11-03T16:22:18.348Z,99187.19
2022-11-03T16:27:21.686Z,99193.56
2022-11-03T16:32:24.739Z,99195.22
2022-11-03T16:37:29.643Z,99197.56
2022-11-03T16:42:38.334Z,99200.00
2022-11-03T16:47:41.790Z,99194.94
2022-11-03T16:52:46.252Z,99199.31
2022-11-03T16:57:49.553Z,99193.84
2022-11-03T17:02:52.649Z,99197.25
2022-11-03T17:07:57.689Z,99188.09
2022-11-03T17:13:00.765Z,99193.41
2022-11-03T17:18:04.753Z,99197.66
2022-11-03T17:23:09.353Z,99192.56
2022-11-03T17:28:13.327Z,99197.09
2022-11-03T17:33:19.678Z,99193.16
2022-11-03T17:38:25.384Z,99189.28
2022-11-03T17:43:30.311Z,99193.53
2022-11-03T17:48:33.635Z,99187.63
2022-11-03T17:53:38.234Z,99193.78
2022-11-03T17:58:46.540Z,99193.38
2022-11-03T18:03:50.523Z,99191.84
2022-11-03T18:08:55.948Z,99198.13
2022-11-03T18:13:59.360Z,99182.00
2022-11-03T18:19:02.690Z,99187.09
2022-11-03T18:24:10.872Z,99180.94
2022-11-03T18:29:14.147Z,99183.59
2022-11-03T18:34:20.079Z,99185.16
2022-11-03T18:39:27.043Z,99190.72
2022-11-03T18:44:30.984Z,99185.81
2022-11-03T18:49:34.137Z,99191.06
2022-11-03T18:54:39.304Z,99181.66
2022-11-03T18:59:44.843Z,99182.72
2022-11-03T19:04:49.696Z,99185.81
2022-11-03T19:09:56.432Z,99174.78
2022-11-03T19:14:59.540Z,99178.16
2022-11-03T19:20:05.057Z,99178.94
2022-11-03T19:25:10.745Z,99177.34
2022-11-03T19:30:15.351Z,99176.34
2022-11-03T19:35:20.636Z,99176.25
2022-11-03T19:40:25.388Z,99183.03
2022-11-03T19:45:29.306Z,99182.78
2022-11-03T19:50:33.885Z,99173.13
2022-11-03T19:55:40.437Z,99179.03
2022-11-03T20:00:44.030Z,99171.47
2022-11-03T20:05:49.817Z,99170.66
2022-11-03T20:10:57.487Z,99171.16
2022-11-03T20:16:05.631Z,99163.84
2022-11-03T20:21:09.124Z,99156.94
2022-11-03T20:26:14.717Z,99157.97
2022-11-03T20:31:18.832Z,99160.31
2022-11-03T20:36:22.515Z,99166.41
2022-11-03T20:41:28.142Z,99160.91
2022-11-03T20:46:32.541Z,99165.13
2022-11-03T20:51:37.228Z,99165.59
2022-11-03T20:56:41.982Z,99153.59
2022-11-03T21:01:46.284Z,99156.19
2022-11-03T21:06:49.918Z,99157.66
2022-11-03T21:11:55.369Z,99165.44
2022-11-03T21:17:18.722Z,99166.63
2022-11-03T21:27:49.790Z,99172.13
2022-11-03T21:32:52.923Z,99159.66
2022-11-03T21:37:56.218Z,99159.69
2022-11-03T21:43:18.295Z,99154.78
2022-11-03T21:48:38.932Z,99162.16
2022-11-03T21:53:44.941Z,99161.34
2022-11-03T21:58:49.596Z,99156.84
2022-11-03T22:03:52.890Z,99153.63
2022-11-03T22:08:56.305Z,99152.53
2022-11-03T22:14:02.076Z,99150.84
2022-11-03T22:19:23.740Z,99150.09
2022-11-03T22:24:44.633Z,99145.22
2022-11-03T22:30:06.624Z,99145.31
2022-11-03T22:35:27.857Z,99142.75
2022-11-03T22:40:48.679Z,99137.00
2022-11-03T22:45:54.825Z,99141.84
2022-11-03T22:51:02.342Z,99145.31
2022-11-03T22:56:05.891Z,99143.13
2022-11-03T23:01:29.521Z,99150.13
2022-11-03T23:06:36.064Z,99144.75
2022-11-03T23:11:39.454Z,99150.88
2022-11-03T23:16:45.111Z,99151.06
2022-11-03T23:21:49.129Z,99159.84
2022-11-03T23:26:52.453Z,99155.16
2022-11-03T23:31:57.449Z,99167.25
2022-11-03T23:37:00.837Z,99166.75
2022-11-03T23:42:04.086Z,99165.88
2022-11-03T23:47:27.268Z,99166.56
2022-11-03T23:52:30.428Z,99166.13
2022-11-03T23:57:51.244Z,99162.28
